createdAt,value
2019-01-17T00:02:01.424Z,97910.64
2019-01-17T00:04:49.678Z,97902.67
2019-01-17T00:07:29.835Z,97914.46
2019-01-17T00:13:24.206Z,97913.63
2019-01-17T00:16:12.419Z,97896.13
2019-01-17T00:19:00.727Z,97870.05
2019-01-17T00:21:49.176Z,97890.75
2019-01-17T00:24:37.681Z,97813.87
2019-01-17T00:27:26.060Z,97893.48
2019-01-17T00:30:14.287Z,97891.83
2019-01-17T00:32:56.967Z,97888.48
2019-01-17T00:35:36.427Z,97889.09
2019-01-17T00:38:24.672Z,97890.41
2019-01-17T00:41:12.860Z,97885.17
2019-01-17T00:44:01.040Z,97884.33
2019-01-17T00:46:49.318Z,97877.79
2019-01-17T00:49:37.689Z,97875.86
2019-01-17T00:52:45.017Z,97890.88
2019-01-17T00:55:33.206Z,97890.14
2019-01-17T00:58:21.438Z,97889.53
2019-01-17T01:01:03.376Z,97884.53
2019-01-17T01:03:51.734Z,97889.08
2019-01-17T01:06:40.177Z,97891.55
2019-01-17T01:09:28.424Z,97855.92
2019-01-17T01:12:08.512Z,97855.80
2019-01-17T01:14:44.484Z,97891.77
2019-01-17T01:17:32.729Z,97892.00
2019-01-17T01:20:20.938Z,97895.54
2019-01-17T01:23:22.438Z,97893.62
2019-01-17T01:26:29.658Z,97889.22
2019-01-17T01:29:17.841Z,97892.06
2019-01-17T01:32:06.290Z,97888.38
2019-01-17T01:34:54.498Z,97886.94
2019-01-17T01:37:42.788Z,97892.73
2019-01-17T01:43:56.327Z,97892.66
2019-01-17T01:46:44.940Z,97905.22
2019-01-17T01:49:33.251Z,97902.83
2019-01-17T01:52:21.546Z,97906.53
2019-01-17T01:54:51.110Z,97905.22
2019-01-17T01:57:20.400Z,97913.57
2019-01-17T01:59:50.034Z,97913.92
2019-01-17T02:02:19.308Z,97916.42
2019-01-17T02:04:48.756Z,97913.35
2019-01-17T02:07:18.073Z,97912.62
2019-01-17T02:10:06.256Z,97920.45
2019-01-17T02:12:35.890Z,97924.60
2019-01-17T02:15:44.509Z,97927.78
2019-01-17T02:18:13.985Z,97934.19
2019-01-17T02:20:43.286Z,97938.77
2019-01-17T02:23:12.926Z,97930.66
2019-01-17T02:25:42.224Z,97938.34
2019-01-17T02:28:11.567Z,97930.94
2019-01-17T02:30:40.859Z,97937.12
2019-01-17T02:33:10.212Z,97939.59
2019-01-17T02:35:39.507Z,97938.75
2019-01-17T02:38:08.893Z,97949.94
2019-01-17T02:40:38.243Z,97956.40
2019-01-17T02:43:07.526Z,97916.69
2019-01-17T02:45:36.841Z,97953.22
2019-01-17T02:48:06.117Z,97961.45
2019-01-17T02:50:35.398Z,97958.00
2019-01-17T02:53:04.801Z,97952.20
2019-01-17T02:55:34.329Z,97951.25
2019-01-17T02:58:03.622Z,97870.05
2019-01-17T03:00:33.175Z,97956.72
2019-01-17T03:03:02.451Z,97961.70
2019-01-17T03:05:31.890Z,97960.95
2019-01-17T03:08:01.171Z,97960.18
2019-01-17T03:10:30.701Z,97972.07
2019-01-17T03:12:59.992Z,97987.59
2019-01-17T03:15:29.486Z,97982.55
2019-01-17T03:17:58.785Z,97888.66
2019-01-17T03:20:28.353Z,97988.84
2019-01-17T03:22:57.624Z,97988.36
2019-01-17T03:25:27.365Z,98004.89
2019-01-17T03:27:56.732Z,98018.23
2019-01-17T03:30:26.243Z,98021.55
2019-01-17T03:35:50.300Z,98024.65
2019-01-17T03:38:19.568Z,98030.55
2019-01-17T03:40:49.257Z,98036.62
2019-01-17T03:43:18.548Z,98037.41
2019-01-17T03:45:47.879Z,98043.20
2019-01-17T03:48:36.245Z,98045.25
2019-01-17T03:51:16.770Z,98050.84
2019-01-17T03:53:57.889Z,98051.04
2019-01-17T03:56:27.345Z,98059.23
2019-01-17T03:58:56.616Z,98068.96
2019-01-17T04:01:26.665Z,98072.30
2019-01-17T04:06:44.339Z,98082.72
2019-01-17T04:09:13.765Z,98089.98
2019-01-17T04:11:43.033Z,98084.11
2019-01-17T04:14:12.456Z,98088.86
2019-01-17T04:16:41.767Z,98050.70
2019-01-17T04:19:11.378Z,98093.64
2019-01-17T04:21:40.646Z,98055.86
2019-01-17T04:24:10.342Z,98103.25
2019-01-17T04:26:58.970Z,98103.18
2019-01-17T04:29:47.241Z,98103.18
2019-01-17T04:32:16.542Z,98121.49
2019-01-17T04:34:46.278Z,98124.02
2019-01-17T04:37:15.625Z,98134.84
2019-01-17T04:42:52.411Z,98154.20
2019-01-17T04:45:22.067Z,98156.68
2019-01-17T04:47:51.363Z,98161.74
2019-01-17T04:50:20.925Z,98161.69
2019-01-17T04:52:50.208Z,98159.66
2019-01-17T04:55:19.631Z,98169.27
2019-01-17T05:00:37.227Z,98171.13
2019-01-17T05:03:06.565Z,98168.22
2019-01-17T05:05:35.860Z,98175.02
2019-01-17T05:08:05.344Z,98178.37
2019-01-17T05:10:55.109Z,98186.91
2019-01-17T05:13:24.503Z,98187.76
2019-01-17T05:15:54.034Z,98196.77
2019-01-17T05:18:23.355Z,98199.52
2019-01-17T05:20:52.821Z,98209.03
2019-01-17T05:23:22.130Z,98214.96
2019-01-17T05:25:51.450Z,98220.06
2019-01-17T05:28:20.736Z,98224.98
2019-01-17T05:30:50.075Z,98232.23
2019-01-17T05:33:19.366Z,98225.64
2019-01-17T05:35:48.782Z,98234.48
2019-01-17T05:38:18.234Z,98237.21
2019-01-17T05:40:47.707Z,98230.73
2019-01-17T05:43:17.321Z,98239.66
2019-01-17T05:45:46.714Z,98237.35
2019-01-17T05:48:16.842Z,98251.44
2019-01-17T05:50:46.223Z,98244.94
2019-01-17T05:53:15.717Z,98249.20
2019-01-17T05:55:45.214Z,98246.75
2019-01-17T05:58:14.518Z,98250.77
2019-01-17T06:00:44.186Z,98253.50
2019-01-17T06:03:13.466Z,98247.30
2019-01-17T06:06:22.248Z,98254.29
2019-01-17T06:08:51.539Z,98254.19
2019-01-17T06:11:21.112Z,98259.91
2019-01-17T06:13:50.407Z,98270.54
2019-01-17T06:16:20.070Z,98273.20
2019-01-17T06:18:49.399Z,98282.70
2019-01-17T06:23:54.215Z,98296.05
2019-01-17T06:26:23.596Z,98304.38
2019-01-17T06:28:53.028Z,98305.74
2019-01-17T06:31:22.329Z,98308.72
2019-01-17T06:33:52.607Z,98305.75
2019-01-17T06:36:21.889Z,98306.02
2019-01-17T06:38:51.363Z,98307.81
2019-01-17T06:41:20.707Z,98312.30
2019-01-17T06:43:51.151Z,98318.05
2019-01-17T06:46:21.110Z,98331.89
2019-01-17T06:48:50.624Z,98334.98
2019-01-17T06:51:59.233Z,98342.75
2019-01-17T06:54:28.664Z,98344.30
2019-01-17T06:56:57.975Z,98348.77
2019-01-17T06:59:27.699Z,98313.20
2019-01-17T07:01:57.016Z,98369.23
2019-01-17T07:04:26.326Z,98367.19
2019-01-17T07:06:55.694Z,98337.83
2019-01-17T07:09:25.099Z,98370.02
2019-01-17T07:11:54.407Z,98372.25
2019-01-17T07:14:24.021Z,98379.69
2019-01-17T07:17:12.255Z,98388.48
2019-01-17T07:19:41.594Z,98400.63
2019-01-17T07:22:30.198Z,98406.82
2019-01-17T07:24:59.673Z,98406.94
2019-01-17T07:27:28.979Z,98419.98
2019-01-17T07:29:58.794Z,98427.73
2019-01-17T07:32:28.167Z,98333.38
2019-01-17T07:34:57.928Z,98436.52
2019-01-17T07:37:27.292Z,98446.06
2019-01-17T07:39:57.419Z,98449.62
2019-01-17T07:42:26.758Z,98463.37
2019-01-17T07:44:56.446Z,98465.25
2019-01-17T07:47:25.899Z,98479.52
2019-01-17T07:49:55.709Z,98479.63
2019-01-17T07:52:25.114Z,98460.92
2019-01-17T07:54:54.491Z,98496.44
2019-01-17T07:57:23.787Z,98516.70
2019-01-17T07:59:53.243Z,98519.70
2019-01-17T08:02:22.560Z,98528.85
2019-01-17T08:04:52.043Z,98536.94
2019-01-17T08:07:40.538Z,98544.63
2019-01-17T08:10:11.918Z,98541.99
2019-01-17T08:12:41.215Z,98555.36
2019-01-17T08:15:50.123Z,98548.95
2019-01-17T08:18:19.445Z,98549.42
2019-01-17T08:20:48.832Z,98560.09
2019-01-17T08:23:18.286Z,98563.63
2019-01-17T08:25:53.968Z,98571.66
2019-01-17T08:28:18.688Z,98578.13
2019-01-17T08:30:48.043Z,98577.64
2019-01-17T08:35:52.689Z,98590.73
2019-01-17T08:38:22.068Z,98597.63
2019-01-17T08:40:51.544Z,98604.45
2019-01-17T08:43:20.923Z,98597.13
2019-01-17T08:46:09.234Z,98626.33
2019-01-17T08:48:50.459Z,98638.68
2019-01-17T08:51:19.771Z,98628.66
2019-01-17T08:53:49.181Z,98640.20
2019-01-17T08:56:37.692Z,98635.72
2019-01-17T08:59:07.089Z,98635.72
2019-01-17T09:01:36.726Z,98637.02
2019-01-17T09:04:06.338Z,98633.52
2019-01-17T09:09:44.625Z,98644.55
2019-01-17T09:12:13.970Z,98638.09
2019-01-17T09:14:54.609Z,98639.81
2019-01-17T09:17:24.229Z,98644.98
2019-01-17T09:19:53.504Z,98597.41
2019-01-17T09:22:23.200Z,98651.82
2019-01-17T09:24:52.507Z,98656.99
2019-01-17T09:27:22.447Z,98658.28
2019-01-17T09:30:14.787Z,98661.26
2019-01-17T09:32:46.774Z,98667.72
2019-01-17T09:38:36.201Z,98677.69
2019-01-17T09:41:05.499Z,98580.09
2019-01-17T09:43:35.052Z,98688.52
2019-01-17T09:46:04.343Z,98693.31
2019-01-17T09:49:13.188Z,98698.27
2019-01-17T09:51:42.747Z,98692.30
2019-01-17T09:54:19.824Z,98693.70
2019-01-17T09:56:49.249Z,98697.75
2019-01-17T09:59:18.629Z,98691.34
2019-01-17T10:02:27.510Z,98696.66
2019-01-17T10:04:57.084Z,98697.36
2019-01-17T10:07:45.427Z,98687.71
2019-01-17T10:10:16.534Z,98695.86
2019-01-17T10:12:48.042Z,98692.78
2019-01-17T10:15:21.333Z,98707.67
2019-01-17T10:18:28.762Z,98708.30
2019-01-17T10:21:36.067Z,98713.53
2019-01-17T10:24:43.653Z,98709.07
2019-01-17T10:31:19.333Z,98718.66
2019-01-17T10:34:30.943Z,98720.55
2019-01-17T10:37:39.697Z,98716.08
2019-01-17T10:40:47.078Z,98725.35
2019-01-17T10:43:54.525Z,98724.91
2019-01-17T10:46:56.195Z,98725.60
2019-01-17T10:50:03.814Z,98731.49
2019-01-17T10:53:12.974Z,98734.67
2019-01-17T10:56:20.283Z,98743.30
2019-01-17T10:59:27.680Z,98745.78
2019-01-17T11:02:21.211Z,98745.52
2019-01-17T11:08:41.728Z,98736.02
2019-01-17T11:11:37.215Z,98736.81
2019-01-17T11:14:46.720Z,98738.60
2019-01-17T11:17:54.220Z,98745.45
2019-01-17T11:20:46.465Z,98738.60
2019-01-17T11:23:54.291Z,98737.75
2019-01-17T11:27:01.601Z,98747.94
2019-01-17T11:29:56.273Z,98756.50
2019-01-17T11:33:03.619Z,98750.41
2019-01-17T11:35:57.049Z,98756.72
2019-01-17T11:42:16.572Z,98769.23
2019-01-17T11:45:23.918Z,98771.18
2019-01-17T11:48:18.955Z,98776.95
2019-01-17T11:51:26.450Z,98787.31
2019-01-17T11:54:33.744Z,98784.06
2019-01-17T11:57:30.391Z,98793.72
2019-01-17T12:00:24.887Z,98804.07
2019-01-17T12:03:32.275Z,98807.52
2019-01-17T12:06:01.595Z,98815.72
2019-01-17T12:08:30.977Z,98814.21
2019-01-17T12:11:00.270Z,98815.23
2019-01-17T12:13:29.598Z,98822.16
2019-01-17T12:15:58.906Z,98815.89
2019-01-17T12:18:28.213Z,98816.55
2019-01-17T12:20:57.508Z,98831.10
2019-01-17T12:23:26.905Z,98820.10
2019-01-17T12:26:15.267Z,98824.27
2019-01-17T12:28:44.554Z,98831.33
2019-01-17T12:31:13.865Z,98826.53
2019-01-17T12:33:43.313Z,98827.06
2019-01-17T12:36:12.657Z,98780.87
2019-01-17T12:38:41.971Z,98834.20
2019-01-17T12:41:11.296Z,98840.50
2019-01-17T12:43:40.576Z,98841.31
2019-01-17T12:46:09.942Z,98842.66
2019-01-17T12:48:39.261Z,98835.27
2019-01-17T12:51:08.539Z,98857.23
2019-01-17T12:53:38.277Z,98846.70
2019-01-17T12:56:07.623Z,98864.03
2019-01-17T12:58:37.145Z,98852.90
2019-01-17T13:03:54.832Z,98857.28
2019-01-17T13:06:24.431Z,98861.75
2019-01-17T13:08:53.729Z,98827.47
2019-01-17T13:11:23.241Z,98880.90
2019-01-17T13:13:52.540Z,98835.44
2019-01-17T13:16:22.252Z,98896.64
2019-01-17T13:18:51.570Z,98878.12
2019-01-17T13:21:21.197Z,98902.62
2019-01-17T13:24:09.691Z,98913.95
2019-01-17T13:26:38.987Z,98902.83
2019-01-17T13:29:08.357Z,98907.58
2019-01-17T13:31:37.676Z,98825.33
2019-01-17T13:34:07.267Z,98913.77
2019-01-17T13:36:40.263Z,98861.86
2019-01-17T13:39:28.848Z,98914.45
2019-01-17T13:41:59.004Z,98908.41
2019-01-17T13:44:29.266Z,98924.71
2019-01-17T13:46:58.545Z,98925.23
2019-01-17T13:49:28.219Z,98933.33
2019-01-17T13:51:57.519Z,98935.88
2019-01-17T13:54:27.109Z,98941.30
2019-01-17T13:56:56.451Z,98938.42
2019-01-17T13:59:25.964Z,98935.36
2019-01-17T14:01:55.291Z,98940.77
2019-01-17T14:04:25.022Z,98941.64
2019-01-17T14:06:54.385Z,98952.45
2019-01-17T14:09:24.125Z,98950.40
2019-01-17T14:12:12.330Z,98957.45
2019-01-17T14:14:42.561Z,98961.03
2019-01-17T14:17:12.067Z,98969.28
2019-01-17T14:20:00.378Z,98974.97
2019-01-17T14:22:29.660Z,98977.65
2019-01-17T14:24:59.193Z,98992.75
2019-01-17T14:27:28.517Z,98991.36
2019-01-17T14:30:18.313Z,98998.44
2019-01-17T14:32:48.184Z,99004.39
2019-01-17T14:38:19.168Z,99016.25
2019-01-17T14:43:44.009Z,99027.94
2019-01-17T14:46:13.612Z,99038.38
2019-01-17T14:48:42.885Z,99040.27
2019-01-17T14:51:12.589Z,99058.41
2019-01-17T14:53:41.935Z,99053.67
2019-01-17T14:56:11.567Z,99062.42
2019-01-17T14:58:40.987Z,98966.60
2019-01-17T15:03:47.460Z,99077.80
2019-01-17T15:06:16.835Z,99031.91
2019-01-17T15:08:46.263Z,99093.44
2019-01-17T15:11:15.604Z,99103.81
2019-01-17T15:13:44.989Z,99097.05
2019-01-17T15:16:14.274Z,99101.78
2019-01-17T15:18:43.598Z,99114.36
2019-01-17T15:21:12.937Z,99114.52
2019-01-17T15:23:42.510Z,99114.64
2019-01-17T15:26:11.819Z,99124.16
2019-01-17T15:28:41.325Z,99134.61
2019-01-17T15:31:10.791Z,99145.02
2019-01-17T15:33:40.162Z,99146.93
2019-01-17T15:36:28.727Z,99156.45
2019-01-17T15:38:58.088Z,99163.45
2019-01-17T15:41:28.618Z,99174.21
2019-01-17T15:43:59.257Z,99179.92
2019-01-17T15:49:41.576Z,99197.61
2019-01-17T15:52:10.902Z,99199.44
2019-01-17T15:54:40.305Z,99202.48
2019-01-17T15:57:09.650Z,99216.77
2019-01-17T15:59:39.372Z,99215.14
2019-01-17T16:02:08.657Z,99212.16
2019-01-17T16:04:38.077Z,99221.67
2019-01-17T16:07:07.399Z,99227.80
2019-01-17T16:09:37.435Z,99233.03
2019-01-17T16:12:06.815Z,99233.92
2019-01-17T16:14:36.252Z,99245.18
2019-01-17T16:17:24.448Z,99252.95
2019-01-17T16:19:54.646Z,99250.41
2019-01-17T16:22:24.210Z,99263.45
2019-01-17T16:24:53.490Z,99257.48
2019-01-17T16:27:22.987Z,99271.26
2019-01-17T16:29:52.363Z,99274.67
2019-01-17T16:32:21.783Z,99286.75
2019-01-17T16:34:51.133Z,99284.26
2019-01-17T16:37:20.557Z,99289.52
2019-01-17T16:42:38.107Z,99308.47
2019-01-17T16:45:26.453Z,99317.97
2019-01-17T16:47:56.069Z,99321.38
2019-01-17T16:50:26.706Z,99345.62
2019-01-17T16:52:56.336Z,99350.84
2019-01-17T16:55:25.658Z,99354.33
2019-01-17T16:57:55.223Z,99347.59
2019-01-17T17:00:44.999Z,99362.56
2019-01-17T17:06:13.595Z,99373.00
2019-01-17T17:08:43.015Z,99376.03
2019-01-17T17:11:12.328Z,99387.23
2019-01-17T17:13:41.767Z,99386.41
2019-01-17T17:16:11.083Z,99395.92
2019-01-17T17:18:40.405Z,99392.91
2019-01-17T17:21:09.698Z,99399.06
2019-01-17T17:23:58.087Z,99405.98
2019-01-17T17:26:27.390Z,99413.30
2019-01-17T17:28:56.952Z,99415.92
2019-01-17T17:31:26.259Z,99415.63
2019-01-17T17:34:14.737Z,99426.81
2019-01-17T17:39:57.719Z,99441.12
2019-01-17T17:42:27.008Z,99447.20
2019-01-17T17:44:56.446Z,99464.86
2019-01-17T17:47:25.862Z,99475.62
2019-01-17T17:53:17.821Z,99496.38
2019-01-17T17:55:47.127Z,99499.47
2019-01-17T17:58:16.504Z,99500.74
2019-01-17T18:00:52.936Z,99502.48
2019-01-17T18:03:22.284Z,99497.42
2019-01-17T18:05:51.904Z,99507.67
2019-01-17T18:08:21.322Z,99510.25
2019-01-17T18:10:50.818Z,99526.62
2019-01-17T18:13:20.137Z,99525.81
2019-01-17T18:15:49.596Z,99524.12
2019-01-17T18:18:18.994Z,99537.48
2019-01-17T18:20:48.302Z,99541.36
2019-01-17T18:23:17.706Z,99545.22
2019-01-17T18:25:47.099Z,99549.13
2019-01-17T18:28:16.522Z,99566.28
2019-01-17T18:30:46.040Z,99575.79
2019-01-17T18:33:15.390Z,99592.05
2019-01-17T18:35:44.751Z,99603.24
2019-01-17T18:38:14.086Z,99612.27
2019-01-17T18:40:43.635Z,99619.59
2019-01-17T18:43:12.935Z,99626.41
2019-01-17T18:46:01.705Z,99631.95
2019-01-17T18:48:31.010Z,99641.80
2019-01-17T18:51:00.322Z,99638.30
2019-01-17T18:53:29.676Z,99641.30
2019-01-17T18:55:59.047Z,99639.09
2019-01-17T18:58:28.418Z,99639.95
2019-01-17T19:01:16.875Z,99637.38
2019-01-17T19:03:47.474Z,99650.30
2019-01-17T19:06:17.010Z,99653.72
2019-01-17T19:09:21.658Z,99658.06
2019-01-17T19:15:00.670Z,99670.98
2019-01-17T19:20:42.197Z,99692.44
2019-01-17T19:23:18.205Z,99688.56
2019-01-17T19:25:47.903Z,99688.17
2019-01-17T19:28:22.326Z,99705.83
2019-01-17T19:30:48.399Z,99713.59
2019-01-17T19:33:17.725Z,99721.77
2019-01-17T19:35:47.337Z,99723.50
2019-01-17T19:38:16.682Z,99730.41
2019-01-17T19:40:46.105Z,99737.30
2019-01-17T19:43:15.394Z,99737.37
2019-01-17T19:45:45.046Z,99737.37
2019-01-17T19:48:14.363Z,99739.95
2019-01-17T19:50:43.973Z,99735.67
2019-01-17T19:53:13.353Z,99746.84
2019-01-17T19:56:15.776Z,99755.48
2019-01-17T19:58:58.827Z,99754.66
2019-01-17T20:01:28.181Z,99729.05
2019-01-17T20:03:57.873Z,99759.01
2019-01-17T20:06:27.230Z,99753.91
2019-01-17T20:09:16.551Z,99747.91
2019-01-17T20:11:46.170Z,99755.66
2019-01-17T20:14:15.539Z,99713.88
2019-01-17T20:16:45.280Z,99775.92
2019-01-17T20:19:33.847Z,99781.50
2019-01-17T20:22:03.182Z,99785.82
2019-01-17T20:24:32.815Z,99790.11
2019-01-17T20:27:02.145Z,99802.16
2019-01-17T20:29:31.723Z,99803.87
2019-01-17T20:32:01.025Z,99805.59
2019-01-17T20:34:30.606Z,99812.50
2019-01-17T20:36:59.906Z,99819.36
2019-01-17T20:39:29.341Z,99831.38
2019-01-17T20:41:58.658Z,99836.53
2019-01-17T20:44:28.215Z,99839.12
2019-01-17T20:46:57.601Z,99850.31
2019-01-17T20:49:27.125Z,99840.91
2019-01-17T20:51:56.455Z,99851.64
2019-01-17T20:54:26.234Z,99859.38
2019-01-17T20:57:14.439Z,99863.70
2019-01-17T20:59:43.833Z,99869.27
2019-01-17T21:02:16.897Z,99867.58
2019-01-17T21:04:46.245Z,99878.74
2019-01-17T21:07:15.845Z,99871.91
2019-01-17T21:09:45.159Z,99887.34
2019-01-17T21:12:14.522Z,99883.89
2019-01-17T21:17:33.754Z,99891.19
2019-01-17T21:20:03.128Z,99901.05
2019-01-17T21:22:32.471Z,99904.91
2019-01-17T21:25:01.988Z,99907.89
2019-01-17T21:27:31.283Z,99909.63
2019-01-17T21:30:00.748Z,99907.88
2019-01-17T21:32:30.057Z,99904.47
2019-01-17T21:34:59.462Z,99913.45
2019-01-17T21:37:28.805Z,99869.30
2019-01-17T21:39:58.262Z,99921.98
2019-01-17T21:42:27.581Z,99876.12
2019-01-17T21:47:32.921Z,99937.84
2019-01-17T21:50:02.318Z,99935.27
2019-01-17T21:52:50.612Z,99934.39
2019-01-17T21:55:20.391Z,99940.39
2019-01-17T21:57:49.711Z,99951.06
2019-01-17T22:00:21.442Z,99944.62
2019-01-17T22:02:50.883Z,99953.18
2019-01-17T22:05:20.188Z,99946.34
2019-01-17T22:07:49.515Z,99954.45
2019-01-17T22:10:19.162Z,99966.86
2019-01-17T22:12:48.491Z,99971.98
2019-01-17T22:15:20.105Z,99975.83
2019-01-17T22:17:49.393Z,99975.39
2019-01-17T22:20:19.116Z,99976.27
2019-01-17T22:26:02.785Z,99981.39
2019-01-17T22:28:32.068Z,99990.36
2019-01-17T22:31:01.367Z,99993.33
2019-01-17T22:33:30.655Z,99990.73
2019-01-17T22:36:00.026Z,100003.59
2019-01-17T22:38:48.380Z,99998.44
2019-01-17T22:41:17.678Z,100003.58
2019-01-17T22:43:46.964Z,100001.43
2019-01-17T22:46:16.274Z,100007.83
2019-01-17T22:48:45.566Z,100010.40
2019-01-17T22:51:15.039Z,100013.84
2019-01-17T22:53:44.358Z,100009.99
2019-01-17T22:56:13.849Z,100009.53
2019-01-17T22:58:43.140Z,99988.90
2019-01-17T23:01:35.376Z,100026.20
2019-01-17T23:04:06.471Z,100035.19
2019-01-17T23:06:35.910Z,100032.60
2019-01-17T23:09:24.328Z,100036.89
2019-01-17T23:11:53.643Z,100040.72
2019-01-17T23:14:23.279Z,100038.55
2019-01-17T23:16:52.564Z,100044.52
2019-01-17T23:19:22.239Z,100044.52
2019-01-17T23:21:51.534Z,100048.36
2019-01-17T23:24:21.203Z,100050.94
2019-01-17T23:26:50.508Z,100054.77
2019-01-17T23:29:19.917Z,100042.33
2019-01-17T23:31:49.215Z,100043.60
2019-01-17T23:34:18.827Z,100050.87
2019-01-17T23:36:48.983Z,100052.16
2019-01-17T23:39:19.369Z,100055.54
2019-01-17T23:41:48.679Z,100053.84
2019-01-17T23:44:18.286Z,100051.27
2019-01-17T23:47:06.629Z,100058.95
2019-01-17T23:49:35.959Z,100058.07
2019-01-17T23:52:06.011Z,100051.20
2019-01-17T23:54:35.317Z,100059.35
2019-01-17T23:57:04.990Z,100062.36
2019-01-17T23:59:34.328Z,100066.65
